Terminal Aerodrome Forecast
Issued by NWS Wilmington, NC

Current Version | Previous Version | Graphics & Text | Print | Product List | Glossary Off
Versions: 1 2 3 4 5 6 7 8 9 10 11 12 13 14

000
FTUS42 KILM 311100
TAFFLO
TAF
KFLO 311120Z 3112/0112 07005KT P6SM BKN100 BKN250
     FM311500 10008KT P6SM SCT040 SCT120 BKN200
     FM010000 08005KT P6SM VCSH SCT020 BKN050
     FM010800 06004KT P6SM VCSH BKN020=

USA.gov is the U.S. government's official web portal to all federal, state and local government web resources and services.